An Xiu Shan — BRQV — position and weather

sailwx.info

Track history (hours):
 
Tides and Currents Weather Stations Pressure Air Temp Water Temp Dewpoint Dewpoint Depression Visibility Wind Speed Wind Dir Waves Ship Positions

An Xiu Shan

Last reported at 2014-Aug-20 22:23 UTC. Time now 2014-Aug-21 00:27 UTC.
Position N 23°07' E 117°18'.

Length 199 m; draft 12.8 m.

Type: Cargo ship. MMSI: 413195000.

Date/timePositionNaut miles runAvg speedWind from/ knotsBaromVisibWave heightAir tempDewpointWater temp
2014-Aug-20 22:23N 23°07' E 117°18'47 9.8
2014-Aug-20 17:33N 23°36' E 117°58'1110.8
2014-Aug-20 16:33N 23°43' E 118°07'1111.0
2014-Aug-20 15:33N 23°51' E 118°16'5210.4
2014-Aug-20 10:33N 24°24' E 118°59'20 9.2
2014-Aug-20 08:26N 24°38' E 119°14'367 9.9
2014-Aug-18 19:14N 29°50' E 122°52'3310.3
2014-Aug-18 16:03N 30°21' E 123°05'611.1
2014-Aug-18 15:33N 30°26' E 123°03'3411.4
2014-Aug-18 12:31N 31°01' E 122°58'35510.7
2014-Aug-17 03:20N 36°55' E 122°51'8 9.3
2014-Aug-17 02:30N 37°03' E 122°48'9 9.6
2014-Aug-17 01:33N 37°12' E 122°47'12 9.8
2014-Aug-17 00:23N 37°23' E 122°46'910.0
2014-Aug-16 23:30N 37°31' E 122°41'1111.2
2014-Aug-16 22:33N 37°39' E 122°32'2411.3
2014-Aug-16 20:27N 37°54' E 122°09'1511.2
2014-Aug-16 19:07N 38°02' E 121°53'2111.2
2014-Aug-16 17:13N 38°14' E 121°31'811.6
2014-Aug-16 16:32N 38°19' E 121°23'2412.0
2014-Aug-16 14:33N 38°31' E 120°57'9210.2
2014-Aug-16 05:33N 39°45' E 119°46'10 9.9
2014-Aug-16 04:33N 39°54' E 119°41'2 1.6
2014-Aug-16 03:33N 39°55' E 119°40'0 0.0
2014-Aug-16 02:33N 39°55' E 119°40'0 0.0
2014-Aug-16 01:33N 39°55' E 119°40'0 0.0
2014-Aug-16 00:33N 39°55' E 119°40'0 0.0
2014-Aug-15 23:33N 39°55' E 119°40'0 0.0
2014-Aug-15 22:33N 39°55' E 119°40'0 0.0
2014-Aug-15 21:27N 39°55' E 119°40'0 0.0
2014-Aug-15 20:33N 39°55' E 119°40'0 0.0
2014-Aug-15 19:33N 39°55' E 119°40'0 0.0
2014-Aug-15 18:33N 39°55' E 119°40'0 0.0
2014-Aug-15 17:33N 39°55' E 119°40'0 0.0
2014-Aug-15 16:33N 39°55' E 119°40'0 0.0
2014-Aug-15 15:33N 39°55' E 119°40'0 0.0
2014-Aug-15 14:33N 39°55' E 119°40'0 0.0
2014-Aug-15 13:33N 39°55' E 119°40'0 0.4
2014-Aug-15 12:33N 39°55' E 119°40'8 8.3
2014-Aug-15 11:33N 39°48' E 119°45'6 5.4
2014-Aug-15 10:28N 39°47' E 119°52'0 0.0
2014-Aug-15 09:28N 39°47' E 119°52'0 0.0
2014-Aug-15 08:28N 39°47' E 119°52'0 0.0
2014-Aug-15 07:28N 39°47' E 119°52'0 0.0
2014-Aug-15 06:28N 39°47' E 119°52'0 0.0
2014-Aug-15 05:28N 39°47' E 119°52'0 0.2
2014-Aug-15 04:28N 39°47' E 119°52'122 6.7
2014-Aug-14 10:23N 38°17' E 121°37'1212.4
2014-Aug-14 09:27N 38°10' E 121°49'1413.5
2014-Aug-14 08:24N 38°02' E 122°03'1112.6
2014-Aug-14 07:32N 37°55' E 122°15'1411.3
2014-Aug-14 06:17N 37°47' E 122°29'810.9
2014-Aug-14 05:33N 37°43' E 122°38'1110.5
2014-Aug-14 04:30N 37°35' E 122°47'1111.4
2014-Aug-14 03:33N 37°25' E 122°54'1512.7
2014-Aug-14 02:20N 37°10' E 122°54'1113.6
2014-Aug-14 01:33N 36°59' E 122°54'1413.5
2014-Aug-14 00:30N 36°45' E 122°55'33412.3
2014-Aug-12 21:22N 31°11' E 122°57'911.3
2014-Aug-12 20:33N 31°02' E 122°58'1211.4
2014-Aug-12 19:33N 30°50' E 123°01'1512.2
2014-Aug-12 18:18N 30°35' E 123°04'912.6
2014-Aug-12 17:33N 30°26' E 123°05'1312.3
2014-Aug-12 16:31N 30°13' E 123°03'1212.9
2014-Aug-12 15:32N 30°01' E 122°59'1212.4
2014-Aug-12 14:33N 29°50' E 122°53'1313.0
2014-Aug-12 13:31N 29°37' E 122°48'1312.9
2014-Aug-12 12:30N 29°24' E 122°45'1311.7
2014-Aug-12 11:20N 29°12' E 122°39'911.6
2014-Aug-12 10:32N 29°03' E 122°35'1110.9
2014-Aug-12 09:32N 28°53' E 122°31'25012.2
2014-Aug-11 13:06N 25°22' E 119°60'2713.4
2014-Aug-11 11:04N 24°60' E 119°43'2614.4
2014-Aug-11 09:17N 24°42' E 119°23'1014.3
2014-Aug-11 08:33N 24°35' E 119°14'1513.2
2014-Aug-11 07:25N 24°25' E 119°02'1012.0
2014-Aug-11 06:33N 24°18' E 118°53'1611.6
2014-Aug-11 05:12N 24°08' E 118°40'711.5
2014-Aug-11 04:33N 24°04' E 118°33'1212.1
2014-Aug-11 03:33N 23°56' E 118°23'1212.3
2014-Aug-11 02:33N 23°48' E 118°13'1313.1
2014-Aug-11 01:33N 23°40' E 118°02'1413.8
2014-Aug-11 00:32N 23°29' E 117°52'1313.7
2014-Aug-10 23:33N 23°22' E 117°39'  
Track history (hours):
 
Tides and Currents Weather Stations Pressure Air Temp Water Temp Dewpoint Dewpoint Depression Visibility Wind Speed Wind Dir Waves Ship Positions

An Xiu Shan

Last reported at 2014-Aug-20 22:23 UTC. Time now 2014-Aug-21 00:27 UTC.
Position N 23°07' E 117°18'.

Length 199 m; draft 12.8 m.

Type: Cargo ship. MMSI: 413195000.

Date/timePositionNaut miles runAvg speedWind from/ knotsBaromVisibWave heightAir tempDewpointWater temp
2014-Aug-20 22:23N 23°07' E 117°18'47 9.8
2014-Aug-20 17:33N 23°36' E 117°58'1110.8
2014-Aug-20 16:33N 23°43' E 118°07'1111.0
2014-Aug-20 15:33N 23°51' E 118°16'5210.4
2014-Aug-20 10:33N 24°24' E 118°59'20 9.2
2014-Aug-20 08:26N 24°38' E 119°14'367 9.9
2014-Aug-18 19:14N 29°50' E 122°52'3310.3
2014-Aug-18 16:03N 30°21' E 123°05'611.1
2014-Aug-18 15:33N 30°26' E 123°03'3411.4
2014-Aug-18 12:31N 31°01' E 122°58'35510.7
2014-Aug-17 03:20N 36°55' E 122°51'8 9.3
2014-Aug-17 02:30N 37°03' E 122°48'9 9.6
2014-Aug-17 01:33N 37°12' E 122°47'12 9.8
2014-Aug-17 00:23N 37°23' E 122°46'910.0
2014-Aug-16 23:30N 37°31' E 122°41'1111.2
2014-Aug-16 22:33N 37°39' E 122°32'2411.3
2014-Aug-16 20:27N 37°54' E 122°09'1511.2
2014-Aug-16 19:07N 38°02' E 121°53'2111.2
2014-Aug-16 17:13N 38°14' E 121°31'811.6
2014-Aug-16 16:32N 38°19' E 121°23'2412.0
2014-Aug-16 14:33N 38°31' E 120°57'9210.2
2014-Aug-16 05:33N 39°45' E 119°46'10 9.9
2014-Aug-16 04:33N 39°54' E 119°41'2 1.6
2014-Aug-16 03:33N 39°55' E 119°40'0 0.0
2014-Aug-16 02:33N 39°55' E 119°40'0 0.0
2014-Aug-16 01:33N 39°55' E 119°40'0 0.0
2014-Aug-16 00:33N 39°55' E 119°40'0 0.0
2014-Aug-15 23:33N 39°55' E 119°40'0 0.0
2014-Aug-15 22:33N 39°55' E 119°40'0 0.0
2014-Aug-15 21:27N 39°55' E 119°40'0 0.0
2014-Aug-15 20:33N 39°55' E 119°40'0 0.0
2014-Aug-15 19:33N 39°55' E 119°40'0 0.0
2014-Aug-15 18:33N 39°55' E 119°40'0 0.0
2014-Aug-15 17:33N 39°55' E 119°40'0 0.0
2014-Aug-15 16:33N 39°55' E 119°40'0 0.0
2014-Aug-15 15:33N 39°55' E 119°40'0 0.0
2014-Aug-15 14:33N 39°55' E 119°40'0 0.0
2014-Aug-15 13:33N 39°55' E 119°40'0 0.4
2014-Aug-15 12:33N 39°55' E 119°40'8 8.3
2014-Aug-15 11:33N 39°48' E 119°45'6 5.4
2014-Aug-15 10:28N 39°47' E 119°52'0 0.0
2014-Aug-15 09:28N 39°47' E 119°52'0 0.0
2014-Aug-15 08:28N 39°47' E 119°52'0 0.0
2014-Aug-15 07:28N 39°47' E 119°52'0 0.0
2014-Aug-15 06:28N 39°47' E 119°52'0 0.0
2014-Aug-15 05:28N 39°47' E 119°52'0 0.2
2014-Aug-15 04:28N 39°47' E 119°52'122 6.7
2014-Aug-14 10:23N 38°17' E 121°37'1212.4
2014-Aug-14 09:27N 38°10' E 121°49'1413.5
2014-Aug-14 08:24N 38°02' E 122°03'1112.6
2014-Aug-14 07:32N 37°55' E 122°15'1411.3
2014-Aug-14 06:17N 37°47' E 122°29'810.9
2014-Aug-14 05:33N 37°43' E 122°38'1110.5
2014-Aug-14 04:30N 37°35' E 122°47'1111.4
2014-Aug-14 03:33N 37°25' E 122°54'1512.7
2014-Aug-14 02:20N 37°10' E 122°54'1113.6
2014-Aug-14 01:33N 36°59' E 122°54'1413.5
2014-Aug-14 00:30N 36°45' E 122°55'33412.3
2014-Aug-12 21:22N 31°11' E 122°57'911.3
2014-Aug-12 20:33N 31°02' E 122°58'1211.4
2014-Aug-12 19:33N 30°50' E 123°01'1512.2
2014-Aug-12 18:18N 30°35' E 123°04'912.6
2014-Aug-12 17:33N 30°26' E 123°05'1312.3
2014-Aug-12 16:31N 30°13' E 123°03'1212.9
2014-Aug-12 15:32N 30°01' E 122°59'1212.4
2014-Aug-12 14:33N 29°50' E 122°53'1313.0
2014-Aug-12 13:31N 29°37' E 122°48'1312.9
2014-Aug-12 12:30N 29°24' E 122°45'1311.7
2014-Aug-12 11:20N 29°12' E 122°39'911.6
2014-Aug-12 10:32N 29°03' E 122°35'1110.9
2014-Aug-12 09:32N 28°53' E 122°31'25012.2
2014-Aug-11 13:06N 25°22' E 119°60'2713.4
2014-Aug-11 11:04N 24°60' E 119°43'2614.4
2014-Aug-11 09:17N 24°42' E 119°23'1014.3
2014-Aug-11 08:33N 24°35' E 119°14'1513.2
2014-Aug-11 07:25N 24°25' E 119°02'1012.0
2014-Aug-11 06:33N 24°18' E 118°53'1611.6
2014-Aug-11 05:12N 24°08' E 118°40'711.5
2014-Aug-11 04:33N 24°04' E 118°33'1212.1
2014-Aug-11 03:33N 23°56' E 118°23'1212.3
2014-Aug-11 02:33N 23°48' E 118°13'1313.1
2014-Aug-11 01:33N 23°40' E 118°02'1413.8
2014-Aug-11 00:32N 23°29' E 117°52'1313.7
2014-Aug-10 23:33N 23°22' E 117°39'  

Dump ship's entire track history